sensor_id;sensor_type;location;lat;lon;timestamp;P1;durP1;ratioP1;P2;durP2;ratioP2
52432;SDS011;38352;53.244;6.594;2023-03-23T00:02:05;14.30;;;6.47;;
52432;SDS011;38352;53.244;6.594;2023-03-23T00:04:31;12.55;;;6.90;;
52432;SDS011;38352;53.244;6.594;2023-03-23T00:06:58;13.65;;;7.10;;
52432;SDS011;38352;53.244;6.594;2023-03-23T00:09:28;13.23;;;7.70;;
52432;SDS011;38352;53.244;6.594;2023-03-23T00:11:55;15.38;;;9.32;;
52432;SDS011;38352;53.244;6.594;2023-03-23T00:14:30;21.40;;;11.82;;
52432;SDS011;38352;53.244;6.594;2023-03-23T00:17:06;20.65;;;12.10;;
52432;SDS011;38352;53.244;6.594;2023-03-23T00:19:35;20.95;;;12.05;;
52432;SDS011;38352;53.244;6.594;2023-03-23T00:22:10;26.52;;;11.32;;
52432;SDS011;38352;53.244;6.594;2023-03-23T00:24:36;15.18;;;7.93;;
52432;SDS011;38352;53.244;6.594;2023-03-23T00:27:03;13.50;;;7.93;;
52432;SDS011;38352;53.244;6.594;2023-03-23T00:29:29;13.98;;;7.40;;
52432;SDS011;38352;53.244;6.594;2023-03-23T00:31:55;14.93;;;6.13;;
52432;SDS011;38352;53.244;6.594;2023-03-23T00:34:22;11.63;;;7.25;;
52432;SDS011;38352;53.244;6.594;2023-03-23T00:36:51;13.18;;;7.32;;
52432;SDS011;38352;53.244;6.594;2023-03-23T00:39:18;12.52;;;7.63;;
52432;SDS011;38352;53.244;6.594;2023-03-23T00:41:45;15.82;;;8.13;;
52432;SDS011;38352;53.244;6.594;2023-03-23T00:44:12;15.30;;;9.25;;
52432;SDS011;38352;53.244;6.594;2023-03-23T00:46:47;21.40;;;10.98;;
52432;SDS011;38352;53.244;6.594;2023-03-23T00:49:15;21.20;;;12.73;;
52432;SDS011;38352;53.244;6.594;2023-03-23T00:51:42;21.00;;;12.07;;
52432;SDS011;38352;53.244;6.594;2023-03-23T00:54:08;20.00;;;12.43;;
52432;SDS011;38352;53.244;6.594;2023-03-23T00:56:35;23.95;;;14.70;;
52432;SDS011;38352;53.244;6.594;2023-03-23T00:59:01;27.48;;;16.58;;
52432;SDS011;38352;53.244;6.594;2023-03-23T01:01:27;25.90;;;16.45;;
52432;SDS011;38352;53.244;6.594;2023-03-23T01:03:53;29.33;;;18.50;;
52432;SDS011;38352;53.244;6.594;2023-03-23T01:06:26;36.67;;;18.90;;
52432;SDS011;38352;53.244;6.594;2023-03-23T01:08:52;33.38;;;20.52;;
52432;SDS011;38352;53.244;6.594;2023-03-23T01:11:19;21.13;;;13.30;;
52432;SDS011;38352;53.244;6.594;2023-03-23T01:13:45;22.58;;;12.73;;
52432;SDS011;38352;53.244;6.594;2023-03-23T01:16:12;18.70;;;9.57;;
52432;SDS011;38352;53.244;6.594;2023-03-23T01:18:38;15.93;;;7.57;;
52432;SDS011;38352;53.244;6.594;2023-03-23T01:21:05;14.25;;;7.30;;
52432;SDS011;38352;53.244;6.594;2023-03-23T01:23:32;11.57;;;6.25;;
52432;SDS011;38352;53.244;6.594;2023-03-23T01:26:02;11.48;;;5.68;;
52432;SDS011;38352;53.244;6.594;2023-03-23T01:28:28;7.10;;;4.40;;
52432;SDS011;38352;53.244;6.594;2023-03-23T01:30:58;9.73;;;4.03;;
52432;SDS011;38352;53.244;6.594;2023-03-23T01:33:24;7.43;;;4.65;;
52432;SDS011;38352;53.244;6.594;2023-03-23T01:35:51;10.02;;;4.90;;
52432;SDS011;38352;53.244;6.594;2023-03-23T01:38:17;10.23;;;5.40;;
52432;SDS011;38352;53.244;6.594;2023-03-23T01:40:43;9.43;;;6.82;;
52432;SDS011;38352;53.244;6.594;2023-03-23T01:43:11;11.02;;;7.25;;
52432;SDS011;38352;53.244;6.594;2023-03-23T01:45:38;14.13;;;8.23;;
52432;SDS011;38352;53.244;6.594;2023-03-23T01:51:03;14.52;;;9.13;;
52432;SDS011;38352;53.244;6.594;2023-03-23T01:53:37;18.60;;;10.30;;
52432;SDS011;38352;53.244;6.594;2023-03-23T01:56:04;18.95;;;10.63;;
52432;SDS011;38352;53.244;6.594;2023-03-23T01:58:32;18.90;;;10.38;;
52432;SDS011;38352;53.244;6.594;2023-03-23T02:01:01;16.38;;;10.35;;
52432;SDS011;38352;53.244;6.594;2023-03-23T02:03:28;19.08;;;11.48;;
52432;SDS011;38352;53.244;6.594;2023-03-23T02:05:56;19.38;;;11.15;;
52432;SDS011;38352;53.244;6.594;2023-03-23T02:08:28;14.40;;;9.15;;
52432;SDS011;38352;53.244;6.594;2023-03-23T02:10:55;15.32;;;10.15;;
52432;SDS011;38352;53.244;6.594;2023-03-23T02:13:21;17.38;;;10.23;;
52432;SDS011;38352;53.244;6.594;2023-03-23T02:18:53;18.77;;;10.05;;
52432;SDS011;38352;53.244;6.594;2023-03-23T02:26:43;15.90;;;8.98;;
52432;SDS011;38352;53.244;6.594;2023-03-23T02:34:17;15.45;;;8.85;;
52432;SDS011;38352;53.244;6.594;2023-03-23T02:36:45;17.13;;;8.60;;
52432;SDS011;38352;53.244;6.594;2023-03-23T02:39:13;14.68;;;7.72;;
52432;SDS011;38352;53.244;6.594;2023-03-23T02:41:43;15.43;;;7.88;;
52432;SDS011;38352;53.244;6.594;2023-03-23T02:44:11;12.93;;;7.22;;
52432;SDS011;38352;53.244;6.594;2023-03-23T02:46:38;13.48;;;7.40;;
52432;SDS011;38352;53.244;6.594;2023-03-23T02:49:05;12.43;;;7.60;;
52432;SDS011;38352;53.244;6.594;2023-03-23T02:51:33;11.88;;;7.30;;
52432;SDS011;38352;53.244;6.594;2023-03-23T02:54:00;11.45;;;6.32;;
52432;SDS011;38352;53.244;6.594;2023-03-23T02:56:27;11.40;;;6.80;;
52432;SDS011;38352;53.244;6.594;2023-03-23T02:58:54;11.20;;;6.68;;
52432;SDS011;38352;53.244;6.594;2023-03-23T03:04:35;10.90;;;6.43;;
52432;SDS011;38352;53.244;6.594;2023-03-23T03:07:07;13.27;;;6.60;;
52432;SDS011;38352;53.244;6.594;2023-03-23T03:09:37;11.13;;;6.30;;
52432;SDS011;38352;53.244;6.594;2023-03-23T03:12:11;10.95;;;5.93;;
52432;SDS011;38352;53.244;6.594;2023-03-23T03:14:40;12.00;;;5.80;;
52432;SDS011;38352;53.244;6.594;2023-03-23T03:17:14;12.88;;;6.18;;
52432;SDS011;38352;53.244;6.594;2023-03-23T03:19:44;11.77;;;6.10;;
52432;SDS011;38352;53.244;6.594;2023-03-23T03:22:12;12.18;;;5.35;;
52432;SDS011;38352;53.244;6.594;2023-03-23T03:24:39;10.00;;;6.13;;
52432;SDS011;38352;53.244;6.594;2023-03-23T03:27:10;10.95;;;5.18;;
52432;SDS011;38352;53.244;6.594;2023-03-23T03:29:37;12.25;;;5.65;;
52432;SDS011;38352;53.244;6.594;2023-03-23T03:32:06;10.35;;;5.30;;
52432;SDS011;38352;53.244;6.594;2023-03-23T03:34:34;10.60;;;4.85;;
52432;SDS011;38352;53.244;6.594;2023-03-23T03:37:00;12.50;;;5.40;;
52432;SDS011;38352;53.244;6.594;2023-03-23T03:39:29;10.73;;;5.78;;
52432;SDS011;38352;53.244;6.594;2023-03-23T03:41:55;12.20;;;5.00;;
52432;SDS011;38352;53.244;6.594;2023-03-23T03:44:21;11.02;;;5.28;;
52432;SDS011;38352;53.244;6.594;2023-03-23T03:46:48;11.25;;;5.07;;
52432;SDS011;38352;53.244;6.594;2023-03-23T03:49:14;10.52;;;5.55;;
52432;SDS011;38352;53.244;6.594;2023-03-23T03:51:40;9.32;;;4.60;;
52432;SDS011;38352;53.244;6.594;2023-03-23T03:54:06;10.90;;;5.65;;
52432;SDS011;38352;53.244;6.594;2023-03-23T03:56:33;9.70;;;5.03;;
52432;SDS011;38352;53.244;6.594;2023-03-23T03:59:05;15.80;;;6.10;;
52432;SDS011;38352;53.244;6.594;2023-03-23T04:01:33;11.15;;;5.50;;
52432;SDS011;38352;53.244;6.594;2023-03-23T04:03:59;12.82;;;5.00;;
52432;SDS011;38352;53.244;6.594;2023-03-23T04:06:25;9.20;;;5.13;;
52432;SDS011;38352;53.244;6.594;2023-03-23T04:08:53;11.73;;;5.07;;
52432;SDS011;38352;53.244;6.594;2023-03-23T04:11:20;10.43;;;5.10;;
52432;SDS011;38352;53.244;6.594;2023-03-23T04:13:46;10.77;;;4.78;;
52432;SDS011;38352;53.244;6.594;2023-03-23T04:16:12;11.00;;;4.88;;
52432;SDS011;38352;53.244;6.594;2023-03-23T04:18:38;16.92;;;5.13;;
52432;SDS011;38352;53.244;6.594;2023-03-23T04:21:05;7.03;;;3.70;;
52432;SDS011;38352;53.244;6.594;2023-03-23T04:23:33;8.15;;;3.55;;
52432;SDS011;38352;53.244;6.594;2023-03-23T04:26:00;6.55;;;2.50;;
52432;SDS011;38352;53.244;6.594;2023-03-23T04:28:28;6.32;;;2.83;;
52432;SDS011;38352;53.244;6.594;2023-03-23T04:30:54;8.30;;;2.55;;
52432;SDS011;38352;53.244;6.594;2023-03-23T04:33:21;5.80;;;2.50;;
52432;SDS011;38352;53.244;6.594;2023-03-23T04:35:50;5.47;;;2.28;;
52432;SDS011;38352;53.244;6.594;2023-03-23T04:38:18;9.27;;;3.30;;
52432;SDS011;38352;53.244;6.594;2023-03-23T04:40:45;8.25;;;2.72;;
52432;SDS011;38352;53.244;6.594;2023-03-23T04:43:12;7.93;;;2.83;;
52432;SDS011;38352;53.244;6.594;2023-03-23T04:45:40;8.35;;;2.20;;
52432;SDS011;38352;53.244;6.594;2023-03-23T04:48:10;6.65;;;2.88;;
52432;SDS011;38352;53.244;6.594;2023-03-23T04:50:36;6.22;;;2.67;;
52432;SDS011;38352;53.244;6.594;2023-03-23T04:53:03;10.27;;;2.60;;
52432;SDS011;38352;53.244;6.594;2023-03-23T04:55:33;6.13;;;2.97;;
52432;SDS011;38352;53.244;6.594;2023-03-23T04:58:03;9.23;;;2.85;;
52432;SDS011;38352;53.244;6.594;2023-03-23T05:00:31;10.05;;;2.95;;
52432;SDS011;38352;53.244;6.594;2023-03-23T05:02:57;6.35;;;2.60;;
52432;SDS011;38352;53.244;6.594;2023-03-23T05:05:24;12.35;;;3.28;;
52432;SDS011;38352;53.244;6.594;2023-03-23T05:07:52;9.20;;;2.60;;
52432;SDS011;38352;53.244;6.594;2023-03-23T05:10:18;7.28;;;2.50;;
52432;SDS011;38352;53.244;6.594;2023-03-23T05:12:45;7.50;;;2.45;;
52432;SDS011;38352;53.244;6.594;2023-03-23T05:15:11;7.90;;;2.78;;
52432;SDS011;38352;53.244;6.594;2023-03-23T05:17:38;9.20;;;3.33;;
52432;SDS011;38352;53.244;6.594;2023-03-23T05:20:06;11.45;;;3.13;;
52432;SDS011;38352;53.244;6.594;2023-03-23T05:22:36;10.45;;;2.88;;
52432;SDS011;38352;53.244;6.594;2023-03-23T05:25:03;11.85;;;3.97;;
52432;SDS011;38352;53.244;6.594;2023-03-23T05:27:30;10.52;;;3.15;;
52432;SDS011;38352;53.244;6.594;2023-03-23T05:29:57;14.93;;;4.43;;
52432;SDS011;38352;53.244;6.594;2023-03-23T05:32:27;11.00;;;4.35;;
52432;SDS011;38352;53.244;6.594;2023-03-23T05:34:56;9.13;;;4.78;;
52432;SDS011;38352;53.244;6.594;2023-03-23T05:37:23;13.98;;;4.72;;
52432;SDS011;38352;53.244;6.594;2023-03-23T05:39:49;16.23;;;5.25;;
52432;SDS011;38352;53.244;6.594;2023-03-23T05:42:22;11.35;;;4.03;;
52432;SDS011;38352;53.244;6.594;2023-03-23T05:44:49;13.68;;;4.72;;
52432;SDS011;38352;53.244;6.594;2023-03-23T05:47:15;12.88;;;4.20;;
52432;SDS011;38352;53.244;6.594;2023-03-23T05:49:42;17.42;;;4.30;;
52432;SDS011;38352;53.244;6.594;2023-03-23T05:52:08;17.13;;;4.90;;
52432;SDS011;38352;53.244;6.594;2023-03-23T05:54:34;14.95;;;3.97;;
52432;SDS011;38352;53.244;6.594;2023-03-23T05:57:00;18.10;;;4.15;;
52432;SDS011;38352;53.244;6.594;2023-03-23T05:59:26;13.93;;;3.95;;
52432;SDS011;38352;53.244;6.594;2023-03-23T06:01:52;12.43;;;3.30;;
52432;SDS011;38352;53.244;6.594;2023-03-23T06:04:19;23.83;;;4.55;;
52432;SDS011;38352;53.244;6.594;2023-03-23T06:06:45;12.88;;;3.60;;
52432;SDS011;38352;53.244;6.594;2023-03-23T06:09:11;15.48;;;3.75;;
52432;SDS011;38352;53.244;6.594;2023-03-23T06:11:38;12.48;;;3.67;;
52432;SDS011;38352;53.244;6.594;2023-03-23T06:14:04;15.55;;;3.75;;
52432;SDS011;38352;53.244;6.594;2023-03-23T06:16:30;22.40;;;4.00;;
52432;SDS011;38352;53.244;6.594;2023-03-23T06:18:56;20.88;;;4.13;;
52432;SDS011;38352;53.244;6.594;2023-03-23T06:21:22;14.98;;;4.05;;
52432;SDS011;38352;53.244;6.594;2023-03-23T06:23:48;22.25;;;3.50;;
52432;SDS011;38352;53.244;6.594;2023-03-23T06:26:15;18.92;;;3.72;;
52432;SDS011;38352;53.244;6.594;2023-03-23T06:28:43;17.08;;;4.47;;
52432;SDS011;38352;53.244;6.594;2023-03-23T06:31:09;16.75;;;4.03;;
52432;SDS011;38352;53.244;6.594;2023-03-23T06:33:36;18.80;;;4.78;;
52432;SDS011;38352;53.244;6.594;2023-03-23T06:36:03;12.77;;;3.60;;
52432;SDS011;38352;53.244;6.594;2023-03-23T06:38:30;12.55;;;3.28;;
52432;SDS011;38352;53.244;6.594;2023-03-23T06:40:56;16.15;;;3.92;;
52432;SDS011;38352;53.244;6.594;2023-03-23T06:43:23;9.95;;;3.20;;
52432;SDS011;38352;53.244;6.594;2023-03-23T06:45:49;12.20;;;3.40;;
52432;SDS011;38352;53.244;6.594;2023-03-23T06:48:16;12.90;;;3.72;;
52432;SDS011;38352;53.244;6.594;2023-03-23T06:50:45;10.98;;;3.40;;
52432;SDS011;38352;53.244;6.594;2023-03-23T06:53:12;15.05;;;2.67;;
52432;SDS011;38352;53.244;6.594;2023-03-23T06:55:38;8.95;;;2.35;;
52432;SDS011;38352;53.244;6.594;2023-03-23T06:58:05;12.45;;;2.50;;
52432;SDS011;38352;53.244;6.594;2023-03-23T07:00:32;11.75;;;2.05;;
52432;SDS011;38352;53.244;6.594;2023-03-23T07:02:58;6.75;;;2.20;;
52432;SDS011;38352;53.244;6.594;2023-03-23T07:05:24;7.63;;;2.35;;
52432;SDS011;38352;53.244;6.594;2023-03-23T07:07:51;9.52;;;1.90;;
52432;SDS011;38352;53.244;6.594;2023-03-23T07:10:17;9.18;;;2.72;;
52432;SDS011;38352;53.244;6.594;2023-03-23T07:12:44;7.43;;;1.60;;
52432;SDS011;38352;53.244;6.594;2023-03-23T07:15:10;9.38;;;1.90;;
52432;SDS011;38352;53.244;6.594;2023-03-23T07:17:37;11.40;;;2.00;;
52432;SDS011;38352;53.244;6.594;2023-03-23T07:20:04;10.52;;;2.35;;
52432;SDS011;38352;53.244;6.594;2023-03-23T07:22:31;8.68;;;2.47;;
52432;SDS011;38352;53.244;6.594;2023-03-23T07:24:57;12.68;;;3.42;;
52432;SDS011;38352;53.244;6.594;2023-03-23T07:27:23;12.90;;;3.10;;
52432;SDS011;38352;53.244;6.594;2023-03-23T07:29:49;12.20;;;2.70;;
52432;SDS011;38352;53.244;6.594;2023-03-23T07:32:15;13.90;;;3.60;;
52432;SDS011;38352;53.244;6.594;2023-03-23T07:34:41;12.43;;;4.10;;
52432;SDS011;38352;53.244;6.594;2023-03-23T07:37:07;12.40;;;4.30;;
52432;SDS011;38352;53.244;6.594;2023-03-23T07:39:34;17.17;;;4.30;;
52432;SDS011;38352;53.244;6.594;2023-03-23T07:42:01;14.20;;;4.50;;
52432;SDS011;38352;53.244;6.594;2023-03-23T07:44:27;15.93;;;4.72;;
52432;SDS011;38352;53.244;6.594;2023-03-23T07:46:53;15.10;;;4.22;;
52432;SDS011;38352;53.244;6.594;2023-03-23T07:49:19;16.55;;;4.32;;
52432;SDS011;38352;53.244;6.594;2023-03-23T07:51:46;17.52;;;4.13;;
52432;SDS011;38352;53.244;6.594;2023-03-23T07:54:12;19.60;;;4.32;;
52432;SDS011;38352;53.244;6.594;2023-03-23T07:56:40;24.00;;;5.63;;
52432;SDS011;38352;53.244;6.594;2023-03-23T07:59:06;19.38;;;4.75;;
52432;SDS011;38352;53.244;6.594;2023-03-23T08:01:33;19.73;;;4.45;;
52432;SDS011;38352;53.244;6.594;2023-03-23T08:04:00;26.02;;;5.28;;
52432;SDS011;38352;53.244;6.594;2023-03-23T08:06:27;24.58;;;5.22;;
52432;SDS011;38352;53.244;6.594;2023-03-23T08:08:53;23.40;;;4.35;;
52432;SDS011;38352;53.244;6.594;2023-03-23T08:11:20;24.98;;;4.97;;
52432;SDS011;38352;53.244;6.594;2023-03-23T08:13:47;21.13;;;5.03;;
52432;SDS011;38352;53.244;6.594;2023-03-23T08:16:13;17.88;;;5.82;;
52432;SDS011;38352;53.244;6.594;2023-03-23T08:18:39;21.50;;;5.50;;
52432;SDS011;38352;53.244;6.594;2023-03-23T08:21:06;21.25;;;4.57;;
52432;SDS011;38352;53.244;6.594;2023-03-23T08:23:36;18.50;;;5.03;;
52432;SDS011;38352;53.244;6.594;2023-03-23T08:26:03;21.27;;;5.03;;
52432;SDS011;38352;53.244;6.594;2023-03-23T08:28:29;28.73;;;6.15;;
52432;SDS011;38352;53.244;6.594;2023-03-23T08:30:56;21.65;;;5.40;;
52432;SDS011;38352;53.244;6.594;2023-03-23T08:33:22;17.40;;;4.28;;
52432;SDS011;38352;53.244;6.594;2023-03-23T08:35:55;17.80;;;5.00;;
52432;SDS011;38352;53.244;6.594;2023-03-23T08:38:21;21.40;;;5.35;;
52432;SDS011;38352;53.244;6.594;2023-03-23T08:40:48;28.95;;;6.07;;
52432;SDS011;38352;53.244;6.594;2023-03-23T08:43:15;20.80;;;5.05;;
52432;SDS011;38352;53.244;6.594;2023-03-23T08:45:41;18.88;;;4.93;;
52432;SDS011;38352;53.244;6.594;2023-03-23T08:48:08;18.80;;;5.32;;
52432;SDS011;38352;53.244;6.594;2023-03-23T08:50:34;19.73;;;4.78;;
52432;SDS011;38352;53.244;6.594;2023-03-23T08:53:00;24.63;;;5.63;;
52432;SDS011;38352;53.244;6.594;2023-03-23T08:55:28;19.63;;;5.63;;
52432;SDS011;38352;53.244;6.594;2023-03-23T08:57:54;18.10;;;5.28;;
52432;SDS011;38352;53.244;6.594;2023-03-23T09:00:20;19.98;;;4.57;;
52432;SDS011;38352;53.244;6.594;2023-03-23T09:02:50;24.65;;;5.60;;
52432;SDS011;38352;53.244;6.594;2023-03-23T09:05:17;25.52;;;4.78;;
52432;SDS011;38352;53.244;6.594;2023-03-23T09:07:45;17.20;;;4.80;;
52432;SDS011;38352;53.244;6.594;2023-03-23T09:10:11;28.98;;;4.93;;
52432;SDS011;38352;53.244;6.594;2023-03-23T09:12:38;21.85;;;5.15;;
52432;SDS011;38352;53.244;6.594;2023-03-23T09:15:05;25.05;;;4.95;;
52432;SDS011;38352;53.244;6.594;2023-03-23T09:17:36;20.77;;;4.72;;
52432;SDS011;38352;53.244;6.594;2023-03-23T09:20:04;20.00;;;5.07;;
52432;SDS011;38352;53.244;6.594;2023-03-23T09:22:35;15.82;;;4.72;;
52432;SDS011;38352;53.244;6.594;2023-03-23T09:25:03;25.17;;;5.63;;
52432;SDS011;38352;53.244;6.594;2023-03-23T09:27:29;20.38;;;4.90;;
52432;SDS011;38352;53.244;6.594;2023-03-23T09:29:56;20.83;;;4.90;;
52432;SDS011;38352;53.244;6.594;2023-03-23T09:32:22;27.30;;;5.82;;
52432;SDS011;38352;53.244;6.594;2023-03-23T09:34:48;19.13;;;4.70;;
52432;SDS011;38352;53.244;6.594;2023-03-23T09:37:16;22.80;;;4.90;;
52432;SDS011;38352;53.244;6.594;2023-03-23T09:39:42;23.63;;;5.05;;
52432;SDS011;38352;53.244;6.594;2023-03-23T09:42:53;16.90;;;4.25;;
52432;SDS011;38352;53.244;6.594;2023-03-23T09:45:07;16.55;;;3.92;;
52432;SDS011;38352;53.244;6.594;2023-03-23T09:48:10;25.90;;;5.05;;
52432;SDS011;38352;53.244;6.594;2023-03-23T09:50:29;22.23;;;5.57;;
52432;SDS011;38352;53.244;6.594;2023-03-23T09:52:59;24.63;;;4.53;;
52432;SDS011;38352;53.244;6.594;2023-03-23T09:55:26;17.20;;;4.22;;
52432;SDS011;38352;53.244;6.594;2023-03-23T09:58:07;16.13;;;3.35;;
52432;SDS011;38352;53.244;6.594;2023-03-23T10:00:43;20.60;;;5.25;;
52432;SDS011;38352;53.244;6.594;2023-03-23T10:08:17;20.15;;;4.20;;
52432;SDS011;38352;53.244;6.594;2023-03-23T10:15:52;20.75;;;3.80;;
52432;SDS011;38352;53.244;6.594;2023-03-23T10:21:15;20.23;;;3.33;;
52432;SDS011;38352;53.244;6.594;2023-03-23T10:28:44;11.27;;;3.58;;
52432;SDS011;38352;53.244;6.594;2023-03-23T10:31:15;13.68;;;3.58;;
52432;SDS011;38352;53.244;6.594;2023-03-23T10:33:47;18.73;;;3.70;;
52432;SDS011;38352;53.244;6.594;2023-03-23T10:36:16;17.48;;;4.05;;
52432;SDS011;38352;53.244;6.594;2023-03-23T10:38:44;16.52;;;3.97;;
52432;SDS011;38352;53.244;6.594;2023-03-23T10:41:15;16.35;;;3.55;;
52432;SDS011;38352;53.244;6.594;2023-03-23T10:43:43;12.82;;;4.32;;
52432;SDS011;38352;53.244;6.594;2023-03-23T10:46:27;18.17;;;4.13;;
52432;SDS011;38352;53.244;6.594;2023-03-23T10:48:55;12.95;;;3.90;;
52432;SDS011;38352;53.244;6.594;2023-03-23T10:51:25;18.98;;;3.65;;
52432;SDS011;38352;53.244;6.594;2023-03-23T10:53:56;17.63;;;4.88;;
52432;SDS011;38352;53.244;6.594;2023-03-23T10:56:27;14.40;;;3.90;;
52432;SDS011;38352;53.244;6.594;2023-03-23T10:58:55;12.00;;;4.15;;
52432;SDS011;38352;53.244;6.594;2023-03-23T11:01:31;18.17;;;4.65;;
52432;SDS011;38352;53.244;6.594;2023-03-23T11:03:57;20.33;;;4.50;;
52432;SDS011;38352;53.244;6.594;2023-03-23T11:06:32;19.23;;;4.50;;
52432;SDS011;38352;53.244;6.594;2023-03-23T11:09:15;17.35;;;4.32;;
52432;SDS011;38352;53.244;6.594;2023-03-23T11:11:43;16.13;;;4.40;;
52432;SDS011;38352;53.244;6.594;2023-03-23T11:14:17;18.60;;;5.05;;
52432;SDS011;38352;53.244;6.594;2023-03-23T11:16:45;19.83;;;4.95;;
52432;SDS011;38352;53.244;6.594;2023-03-23T11:19:16;15.57;;;4.85;;
52432;SDS011;38352;53.244;6.594;2023-03-23T11:21:50;15.05;;;5.07;;
52432;SDS011;38352;53.244;6.594;2023-03-23T11:24:17;17.05;;;3.72;;
52432;SDS011;38352;53.244;6.594;2023-03-23T11:26:44;18.30;;;5.05;;
52432;SDS011;38352;53.244;6.594;2023-03-23T11:31:44;17.15;;;3.90;;
52432;SDS011;38352;53.244;6.594;2023-03-23T11:34:18;36.15;;;5.63;;
52432;SDS011;38352;53.244;6.594;2023-03-23T11:36:48;14.15;;;3.97;;
52432;SDS011;38352;53.244;6.594;2023-03-23T11:39:34;15.82;;;4.22;;
52432;SDS011;38352;53.244;6.594;2023-03-23T11:42:18;12.48;;;3.72;;
52432;SDS011;38352;53.244;6.594;2023-03-23T11:44:44;13.63;;;3.78;;
52432;SDS011;38352;53.244;6.594;2023-03-23T11:47:23;12.13;;;3.17;;
52432;SDS011;38352;53.244;6.594;2023-03-23T11:49:57;11.90;;;3.15;;
52432;SDS011;38352;53.244;6.594;2023-03-23T11:52:34;12.95;;;3.33;;
52432;SDS011;38352;53.244;6.594;2023-03-23T11:55:26;11.85;;;3.38;;
52432;SDS011;38352;53.244;6.594;2023-03-23T11:57:48;14.05;;;2.83;;
52432;SDS011;38352;53.244;6.594;2023-03-23T12:00:15;13.05;;;3.45;;
52432;SDS011;38352;53.244;6.594;2023-03-23T12:02:55;12.85;;;3.03;;
52432;SDS011;38352;53.244;6.594;2023-03-23T12:18:10;15.93;;;3.45;;
52432;SDS011;38352;53.244;6.594;2023-03-23T12:28:26;10.45;;;2.22;;
52432;SDS011;38352;53.244;6.594;2023-03-23T12:30:56;9.85;;;2.63;;
52432;SDS011;38352;53.244;6.594;2023-03-23T12:41:16;12.25;;;3.25;;
52432;SDS011;38352;53.244;6.594;2023-03-23T12:46:22;9.98;;;2.33;;
52432;SDS011;38352;53.244;6.594;2023-03-23T12:48:55;11.63;;;2.97;;
52432;SDS011;38352;53.244;6.594;2023-03-23T12:51:26;9.75;;;2.97;;
52432;SDS011;38352;53.244;6.594;2023-03-23T12:53:57;10.95;;;2.78;;
52432;SDS011;38352;53.244;6.594;2023-03-23T12:58:51;13.23;;;2.67;;
52432;SDS011;38352;53.244;6.594;2023-03-23T13:01:21;11.48;;;2.30;;
52432;SDS011;38352;53.244;6.594;2023-03-23T13:03:51;13.48;;;2.88;;
52432;SDS011;38352;53.244;6.594;2023-03-23T13:09:46;8.55;;;2.63;;
52432;SDS011;38352;53.244;6.594;2023-03-23T13:11:43;14.23;;;2.58;;
52432;SDS011;38352;53.244;6.594;2023-03-23T13:14:24;11.82;;;2.40;;
52432;SDS011;38352;53.244;6.594;2023-03-23T13:22:07;10.93;;;2.42;;
52432;SDS011;38352;53.244;6.594;2023-03-23T13:24:35;10.20;;;2.60;;
52432;SDS011;38352;53.244;6.594;2023-03-23T13:27:02;12.52;;;2.80;;
52432;SDS011;38352;53.244;6.594;2023-03-23T13:29:31;13.30;;;3.17;;
52432;SDS011;38352;53.244;6.594;2023-03-23T13:32:06;12.77;;;3.72;;
52432;SDS011;38352;53.244;6.594;2023-03-23T13:34:34;12.25;;;2.78;;
52432;SDS011;38352;53.244;6.594;2023-03-23T13:37:05;18.67;;;3.35;;
52432;SDS011;38352;53.244;6.594;2023-03-23T13:39:47;11.80;;;2.88;;
52432;SDS011;38352;53.244;6.594;2023-03-23T13:49:58;20.25;;;3.53;;
52432;SDS011;38352;53.244;6.594;2023-03-23T13:52:36;13.95;;;3.72;;
52432;SDS011;38352;53.244;6.594;2023-03-23T14:00:50;14.27;;;3.97;;
52432;SDS011;38352;53.244;6.594;2023-03-23T14:05:50;10.95;;;3.22;;
52432;SDS011;38352;53.244;6.594;2023-03-23T14:10:43;17.45;;;3.20;;
52432;SDS011;38352;53.244;6.594;2023-03-23T14:15:59;10.32;;;3.40;;
52432;SDS011;38352;53.244;6.594;2023-03-23T14:18:30;11.70;;;3.25;;
52432;SDS011;38352;53.244;6.594;2023-03-23T14:20:57;11.95;;;3.78;;
52432;SDS011;38352;53.244;6.594;2023-03-23T14:23:23;12.20;;;3.15;;
52432;SDS011;38352;53.244;6.594;2023-03-23T14:25:56;19.20;;;3.72;;
52432;SDS011;38352;53.244;6.594;2023-03-23T14:28:30;14.65;;;3.03;;
52432;SDS011;38352;53.244;6.594;2023-03-23T14:30:58;13.50;;;3.47;;
52432;SDS011;38352;53.244;6.594;2023-03-23T14:33:25;14.70;;;3.97;;
52432;SDS011;38352;53.244;6.594;2023-03-23T14:35:52;12.70;;;3.83;;
52432;SDS011;38352;53.244;6.594;2023-03-23T14:38:21;13.52;;;3.15;;
52432;SDS011;38352;53.244;6.594;2023-03-23T14:40:51;14.88;;;3.47;;
52432;SDS011;38352;53.244;6.594;2023-03-23T14:43:18;12.68;;;3.15;;
52432;SDS011;38352;53.244;6.594;2023-03-23T14:45:47;18.67;;;3.67;;
52432;SDS011;38352;53.244;6.594;2023-03-23T14:48:14;13.52;;;3.38;;
52432;SDS011;38352;53.244;6.594;2023-03-23T14:50:42;15.00;;;4.13;;
52432;SDS011;38352;53.244;6.594;2023-03-23T14:53:25;10.40;;;2.88;;
52432;SDS011;38352;53.244;6.594;2023-03-23T14:55:52;17.33;;;3.72;;
52432;SDS011;38352;53.244;6.594;2023-03-23T14:58:20;14.10;;;3.45;;
52432;SDS011;38352;53.244;6.594;2023-03-23T15:00:49;9.40;;;2.28;;
52432;SDS011;38352;53.244;6.594;2023-03-23T15:03:17;8.15;;;2.28;;
52432;SDS011;38352;53.244;6.594;2023-03-23T15:05:45;9.40;;;2.40;;
52432;SDS011;38352;53.244;6.594;2023-03-23T15:08:14;12.13;;;2.55;;
52432;SDS011;38352;53.244;6.594;2023-03-23T15:10:40;6.15;;;2.00;;
52432;SDS011;38352;53.244;6.594;2023-03-23T15:13:10;8.45;;;2.45;;
52432;SDS011;38352;53.244;6.594;2023-03-23T15:15:36;8.43;;;2.72;;
52432;SDS011;38352;53.244;6.594;2023-03-23T15:18:03;11.75;;;2.55;;
52432;SDS011;38352;53.244;6.594;2023-03-23T15:20:48;11.65;;;2.42;;
52432;SDS011;38352;53.244;6.594;2023-03-23T15:23:22;8.57;;;2.30;;
52432;SDS011;38352;53.244;6.594;2023-03-23T15:25:50;9.98;;;2.35;;
52432;SDS011;38352;53.244;6.594;2023-03-23T15:28:17;8.50;;;2.30;;
52432;SDS011;38352;53.244;6.594;2023-03-23T15:33:36;12.52;;;2.33;;
52432;SDS011;38352;53.244;6.594;2023-03-23T15:36:14;10.65;;;2.45;;
52432;SDS011;38352;53.244;6.594;2023-03-23T15:38:43;8.15;;;2.22;;
52432;SDS011;38352;53.244;6.594;2023-03-23T15:41:20;8.20;;;1.70;;
52432;SDS011;38352;53.244;6.594;2023-03-23T15:43:51;10.27;;;2.50;;
52432;SDS011;38352;53.244;6.594;2023-03-23T15:48:47;6.30;;;1.98;;
52432;SDS011;38352;53.244;6.594;2023-03-23T15:51:14;8.05;;;2.45;;
52432;SDS011;38352;53.244;6.594;2023-03-23T15:53:40;8.57;;;2.30;;
52432;SDS011;38352;53.244;6.594;2023-03-23T15:56:07;7.63;;;2.05;;
52432;SDS011;38352;53.244;6.594;2023-03-23T15:58:34;10.23;;;2.90;;
52432;SDS011;38352;53.244;6.594;2023-03-23T16:01:04;10.70;;;2.38;;
52432;SDS011;38352;53.244;6.594;2023-03-23T16:03:39;6.25;;;2.25;;
52432;SDS011;38352;53.244;6.594;2023-03-23T16:06:08;13.25;;;2.35;;
52432;SDS011;38352;53.244;6.594;2023-03-23T16:08:35;8.18;;;2.47;;
52432;SDS011;38352;53.244;6.594;2023-03-23T16:11:05;10.55;;;2.42;;
52432;SDS011;38352;53.244;6.594;2023-03-23T16:13:31;14.95;;;3.80;;
52432;SDS011;38352;53.244;6.594;2023-03-23T16:15:57;14.00;;;3.28;;
52432;SDS011;38352;53.244;6.594;2023-03-23T16:18:23;15.60;;;3.55;;
52432;SDS011;38352;53.244;6.594;2023-03-23T16:20:50;10.00;;;3.05;;
52432;SDS011;38352;53.244;6.594;2023-03-23T16:23:16;10.48;;;3.15;;
52432;SDS011;38352;53.244;6.594;2023-03-23T16:25:42;11.50;;;2.90;;
52432;SDS011;38352;53.244;6.594;2023-03-23T16:28:10;11.43;;;3.42;;
52432;SDS011;38352;53.244;6.594;2023-03-23T16:30:36;12.25;;;2.90;;
52432;SDS011;38352;53.244;6.594;2023-03-23T16:33:02;11.90;;;3.10;;